sensor_id;sensor_type;location;lat;lon;timestamp;P1;durP1;ratioP1;P2;durP2;ratioP2
49217;SDS011;35045;51.194;7.268;2022-08-01T00:02:25;10.60;;;8.00;;
49217;SDS011;35045;51.194;7.268;2022-08-01T00:07:17;11.82;;;8.35;;
49217;SDS011;35045;51.194;7.268;2022-08-01T00:09:42;11.10;;;8.65;;
49217;SDS011;35045;51.194;7.268;2022-08-01T00:12:07;12.60;;;9.00;;
49217;SDS011;35045;51.194;7.268;2022-08-01T00:14:32;11.18;;;8.40;;
49217;SDS011;35045;51.194;7.268;2022-08-01T00:16:58;12.50;;;9.57;;
49217;SDS011;35045;51.194;7.268;2022-08-01T00:21:48;12.60;;;8.38;;
49217;SDS011;35045;51.194;7.268;2022-08-01T00:24:13;12.02;;;8.35;;
49217;SDS011;35045;51.194;7.268;2022-08-01T00:26:38;11.13;;;8.68;;
49217;SDS011;35045;51.194;7.268;2022-08-01T00:29:03;13.40;;;8.00;;
49217;SDS011;35045;51.194;7.268;2022-08-01T00:31:28;12.13;;;8.50;;
49217;SDS011;35045;51.194;7.268;2022-08-01T00:33:53;11.38;;;8.18;;
49217;SDS011;35045;51.194;7.268;2022-08-01T00:36:18;11.48;;;8.60;;
49217;SDS011;35045;51.194;7.268;2022-08-01T00:38:43;13.13;;;8.88;;
49217;SDS011;35045;51.194;7.268;2022-08-01T00:41:08;13.70;;;8.65;;
49217;SDS011;35045;51.194;7.268;2022-08-01T00:43:33;12.40;;;8.88;;
49217;SDS011;35045;51.194;7.268;2022-08-01T00:45:58;13.65;;;9.20;;
49217;SDS011;35045;51.194;7.268;2022-08-01T00:48:23;12.35;;;9.20;;
49217;SDS011;35045;51.194;7.268;2022-08-01T00:50:48;13.90;;;10.15;;
49217;SDS011;35045;51.194;7.268;2022-08-01T00:53:14;14.52;;;10.45;;
49217;SDS011;35045;51.194;7.268;2022-08-01T00:55:39;16.75;;;11.65;;
49217;SDS011;35045;51.194;7.268;2022-08-01T00:58:04;15.45;;;11.98;;
49217;SDS011;35045;51.194;7.268;2022-08-01T01:00:30;20.55;;;12.90;;
49217;SDS011;35045;51.194;7.268;2022-08-01T01:02:55;16.85;;;12.50;;
49217;SDS011;35045;51.194;7.268;2022-08-01T01:05:20;21.95;;;15.02;;
49217;SDS011;35045;51.194;7.268;2022-08-01T01:10:48;17.20;;;13.80;;
49217;SDS011;35045;51.194;7.268;2022-08-01T01:13:29;19.45;;;14.80;;
49217;SDS011;35045;51.194;7.268;2022-08-01T01:16:06;18.23;;;13.85;;
49217;SDS011;35045;51.194;7.268;2022-08-01T01:18:37;16.80;;;13.63;;
49217;SDS011;35045;51.194;7.268;2022-08-01T01:21:13;20.60;;;14.95;;
49217;SDS011;35045;51.194;7.268;2022-08-01T01:26:40;16.42;;;14.73;;
49217;SDS011;35045;51.194;7.268;2022-08-01T01:29:29;19.80;;;15.18;;
49217;SDS011;35045;51.194;7.268;2022-08-01T01:32:08;19.27;;;14.98;;
49217;SDS011;35045;51.194;7.268;2022-08-01T01:34:40;20.77;;;15.85;;
49217;SDS011;35045;51.194;7.268;2022-08-01T01:37:09;21.15;;;16.08;;
49217;SDS011;35045;51.194;7.268;2022-08-01T01:39:38;19.40;;;15.75;;
49217;SDS011;35045;51.194;7.268;2022-08-01T01:42:05;20.77;;;16.00;;
49217;SDS011;35045;51.194;7.268;2022-08-01T01:44:32;21.13;;;15.68;;
49217;SDS011;35045;51.194;7.268;2022-08-01T01:46:58;19.38;;;16.10;;
49217;SDS011;35045;51.194;7.268;2022-08-01T01:49:25;20.25;;;16.15;;
49217;SDS011;35045;51.194;7.268;2022-08-01T01:51:53;21.00;;;16.60;;
49217;SDS011;35045;51.194;7.268;2022-08-01T01:54:19;21.95;;;16.05;;
49217;SDS011;35045;51.194;7.268;2022-08-01T01:56:47;19.00;;;16.38;;
49217;SDS011;35045;51.194;7.268;2022-08-01T01:59:15;21.33;;;17.00;;
49217;SDS011;35045;51.194;7.268;2022-08-01T02:01:45;24.00;;;17.10;;
49217;SDS011;35045;51.194;7.268;2022-08-01T02:04:13;23.00;;;17.42;;
49217;SDS011;35045;51.194;7.268;2022-08-01T02:06:38;24.25;;;19.10;;
49217;SDS011;35045;51.194;7.268;2022-08-01T02:09:04;25.00;;;19.35;;
49217;SDS011;35045;51.194;7.268;2022-08-01T02:11:32;26.08;;;20.05;;
49217;SDS011;35045;51.194;7.268;2022-08-01T02:13:59;26.58;;;19.63;;
49217;SDS011;35045;51.194;7.268;2022-08-01T02:16:30;26.20;;;19.30;;
49217;SDS011;35045;51.194;7.268;2022-08-01T02:18:58;29.02;;;20.13;;
49217;SDS011;35045;51.194;7.268;2022-08-01T02:23:59;26.92;;;19.33;;
49217;SDS011;35045;51.194;7.268;2022-08-01T02:26:30;27.52;;;19.23;;
49217;SDS011;35045;51.194;7.268;2022-08-01T02:28:57;27.35;;;20.15;;
49217;SDS011;35045;51.194;7.268;2022-08-01T02:31:26;25.27;;;19.45;;
49217;SDS011;35045;51.194;7.268;2022-08-01T02:34:00;28.02;;;20.50;;
49217;SDS011;35045;51.194;7.268;2022-08-01T02:36:28;26.40;;;19.95;;
49217;SDS011;35045;51.194;7.268;2022-08-01T02:38:56;26.60;;;20.42;;
49217;SDS011;35045;51.194;7.268;2022-08-01T02:41:23;28.55;;;20.70;;
49217;SDS011;35045;51.194;7.268;2022-08-01T02:43:51;29.27;;;19.75;;
49217;SDS011;35045;51.194;7.268;2022-08-01T02:46:19;27.92;;;19.65;;
49217;SDS011;35045;51.194;7.268;2022-08-01T02:48:50;25.42;;;20.60;;
49217;SDS011;35045;51.194;7.268;2022-08-01T02:51:17;26.05;;;20.38;;
49217;SDS011;35045;51.194;7.268;2022-08-01T02:53:46;28.63;;;21.77;;
49217;SDS011;35045;51.194;7.268;2022-08-01T02:58:37;28.75;;;19.67;;
49217;SDS011;35045;51.194;7.268;2022-08-01T03:01:05;30.23;;;20.35;;
49217;SDS011;35045;51.194;7.268;2022-08-01T03:03:31;27.63;;;21.92;;
49217;SDS011;35045;51.194;7.268;2022-08-01T03:05:58;29.73;;;21.60;;
49217;SDS011;35045;51.194;7.268;2022-08-01T03:08:24;29.15;;;20.63;;
49217;SDS011;35045;51.194;7.268;2022-08-01T03:10:51;28.45;;;21.02;;
49217;SDS011;35045;51.194;7.268;2022-08-01T03:13:18;29.55;;;21.30;;
49217;SDS011;35045;51.194;7.268;2022-08-01T03:15:45;29.40;;;21.67;;
49217;SDS011;35045;51.194;7.268;2022-08-01T03:18:12;26.95;;;20.52;;
49217;SDS011;35045;51.194;7.268;2022-08-01T03:20:38;32.38;;;22.25;;
49217;SDS011;35045;51.194;7.268;2022-08-01T03:23:06;33.47;;;20.80;;
49217;SDS011;35045;51.194;7.268;2022-08-01T03:25:33;32.53;;;22.63;;
49217;SDS011;35045;51.194;7.268;2022-08-01T03:28:01;29.95;;;22.08;;
49217;SDS011;35045;51.194;7.268;2022-08-01T03:30:28;31.33;;;21.60;;
49217;SDS011;35045;51.194;7.268;2022-08-01T03:32:55;30.63;;;22.00;;
49217;SDS011;35045;51.194;7.268;2022-08-01T03:35:20;28.58;;;20.42;;
49217;SDS011;35045;51.194;7.268;2022-08-01T03:37:48;32.25;;;22.52;;
49217;SDS011;35045;51.194;7.268;2022-08-01T03:40:17;32.25;;;23.55;;
49217;SDS011;35045;51.194;7.268;2022-08-01T03:42:48;33.20;;;22.55;;
49217;SDS011;35045;51.194;7.268;2022-08-01T03:45:21;33.35;;;22.67;;
49217;SDS011;35045;51.194;7.268;2022-08-01T03:47:48;34.78;;;23.17;;
49217;SDS011;35045;51.194;7.268;2022-08-01T03:50:16;28.77;;;22.10;;
49217;SDS011;35045;51.194;7.268;2022-08-01T03:52:46;31.48;;;22.52;;
49217;SDS011;35045;51.194;7.268;2022-08-01T03:57:37;30.67;;;23.37;;
49217;SDS011;35045;51.194;7.268;2022-08-01T04:00:04;29.50;;;22.02;;
49217;SDS011;35045;51.194;7.268;2022-08-01T04:02:33;35.78;;;24.17;;
49217;SDS011;35045;51.194;7.268;2022-08-01T04:04:59;27.17;;;22.00;;
49217;SDS011;35045;51.194;7.268;2022-08-01T04:07:25;27.95;;;21.90;;
49217;SDS011;35045;51.194;7.268;2022-08-01T04:09:52;33.83;;;22.80;;
49217;SDS011;35045;51.194;7.268;2022-08-01T04:14:43;33.85;;;23.13;;
49217;SDS011;35045;51.194;7.268;2022-08-01T04:19:33;29.88;;;21.60;;
49217;SDS011;35045;51.194;7.268;2022-08-01T04:21:58;34.05;;;23.33;;
49217;SDS011;35045;51.194;7.268;2022-08-01T04:24:24;37.28;;;23.42;;
49217;SDS011;35045;51.194;7.268;2022-08-01T04:26:52;35.80;;;24.50;;
49217;SDS011;35045;51.194;7.268;2022-08-01T04:29:17;32.40;;;24.25;;
49217;SDS011;35045;51.194;7.268;2022-08-01T04:31:45;31.30;;;22.10;;
49217;SDS011;35045;51.194;7.268;2022-08-01T04:34:12;32.20;;;21.17;;
49217;SDS011;35045;51.194;7.268;2022-08-01T04:36:41;33.22;;;22.52;;
49217;SDS011;35045;51.194;7.268;2022-08-01T04:39:06;31.38;;;22.65;;
49217;SDS011;35045;51.194;7.268;2022-08-01T04:41:33;33.88;;;22.20;;
49217;SDS011;35045;51.194;7.268;2022-08-01T04:44:00;30.13;;;22.83;;
49217;SDS011;35045;51.194;7.268;2022-08-01T04:46:27;34.15;;;22.38;;
49217;SDS011;35045;51.194;7.268;2022-08-01T04:48:53;34.20;;;22.80;;
49217;SDS011;35045;51.194;7.268;2022-08-01T04:51:19;36.90;;;27.20;;
49217;SDS011;35045;51.194;7.268;2022-08-01T04:53:46;35.85;;;26.08;;
49217;SDS011;35045;51.194;7.268;2022-08-01T04:56:12;37.10;;;29.08;;
49217;SDS011;35045;51.194;7.268;2022-08-01T04:58:37;37.53;;;28.77;;
49217;SDS011;35045;51.194;7.268;2022-08-01T05:01:03;37.42;;;28.38;;
49217;SDS011;35045;51.194;7.268;2022-08-01T05:03:28;37.40;;;28.27;;
49217;SDS011;35045;51.194;7.268;2022-08-01T05:05:53;35.75;;;27.33;;
49217;SDS011;35045;51.194;7.268;2022-08-01T05:08:18;36.67;;;26.45;;
49217;SDS011;35045;51.194;7.268;2022-08-01T05:10:43;38.90;;;28.38;;
49217;SDS011;35045;51.194;7.268;2022-08-01T05:13:09;37.78;;;27.80;;
49217;SDS011;35045;51.194;7.268;2022-08-01T05:15:35;38.15;;;28.02;;
49217;SDS011;35045;51.194;7.268;2022-08-01T05:18:03;35.85;;;27.25;;
49217;SDS011;35045;51.194;7.268;2022-08-01T05:20:28;36.03;;;27.40;;
49217;SDS011;35045;51.194;7.268;2022-08-01T05:22:53;38.13;;;27.42;;
49217;SDS011;35045;51.194;7.268;2022-08-01T05:25:18;37.97;;;29.23;;
49217;SDS011;35045;51.194;7.268;2022-08-01T05:27:43;36.10;;;27.42;;
49217;SDS011;35045;51.194;7.268;2022-08-01T05:30:09;37.30;;;26.33;;
49217;SDS011;35045;51.194;7.268;2022-08-01T05:32:34;38.10;;;27.10;;
49217;SDS011;35045;51.194;7.268;2022-08-01T05:35:00;35.90;;;27.23;;
49217;SDS011;35045;51.194;7.268;2022-08-01T05:37:25;35.47;;;27.85;;
49217;SDS011;35045;51.194;7.268;2022-08-01T05:39:50;34.33;;;27.13;;
49217;SDS011;35045;51.194;7.268;2022-08-01T05:42:15;34.67;;;26.83;;
49217;SDS011;35045;51.194;7.268;2022-08-01T05:44:40;37.95;;;27.35;;
49217;SDS011;35045;51.194;7.268;2022-08-01T05:47:05;34.63;;;27.23;;
49217;SDS011;35045;51.194;7.268;2022-08-01T05:49:30;36.10;;;26.48;;
49217;SDS011;35045;51.194;7.268;2022-08-01T05:51:55;33.65;;;27.13;;
49217;SDS011;35045;51.194;7.268;2022-08-01T05:54:21;33.25;;;26.15;;
49217;SDS011;35045;51.194;7.268;2022-08-01T05:56:46;35.67;;;27.67;;
49217;SDS011;35045;51.194;7.268;2022-08-01T05:59:11;36.10;;;27.40;;
49217;SDS011;35045;51.194;7.268;2022-08-01T06:01:36;34.50;;;27.35;;
49217;SDS011;35045;51.194;7.268;2022-08-01T06:04:01;35.97;;;26.98;;
49217;SDS011;35045;51.194;7.268;2022-08-01T06:06:26;36.58;;;27.08;;
49217;SDS011;35045;51.194;7.268;2022-08-01T06:08:51;39.20;;;28.58;;
49217;SDS011;35045;51.194;7.268;2022-08-01T06:11:16;39.55;;;28.88;;
49217;SDS011;35045;51.194;7.268;2022-08-01T06:13:41;41.03;;;29.02;;
49217;SDS011;35045;51.194;7.268;2022-08-01T06:16:06;40.03;;;30.10;;
49217;SDS011;35045;51.194;7.268;2022-08-01T06:18:31;41.72;;;31.75;;
49217;SDS011;35045;51.194;7.268;2022-08-01T06:20:56;43.53;;;32.35;;
49217;SDS011;35045;51.194;7.268;2022-08-01T06:23:21;42.97;;;31.38;;
49217;SDS011;35045;51.194;7.268;2022-08-01T06:25:46;40.10;;;30.13;;
49217;SDS011;35045;51.194;7.268;2022-08-01T06:30:36;36.30;;;27.88;;
49217;SDS011;35045;51.194;7.268;2022-08-01T06:33:01;34.53;;;26.80;;
49217;SDS011;35045;51.194;7.268;2022-08-01T06:35:27;31.90;;;25.98;;
49217;SDS011;35045;51.194;7.268;2022-08-01T06:37:54;33.42;;;25.88;;
49217;SDS011;35045;51.194;7.268;2022-08-01T06:40:19;32.63;;;25.42;;
49217;SDS011;35045;51.194;7.268;2022-08-01T06:42:45;30.50;;;24.65;;
49217;SDS011;35045;51.194;7.268;2022-08-01T06:45:11;35.45;;;28.58;;
49217;SDS011;35045;51.194;7.268;2022-08-01T06:47:38;30.88;;;25.08;;
49217;SDS011;35045;51.194;7.268;2022-08-01T06:50:05;30.90;;;24.40;;
49217;SDS011;35045;51.194;7.268;2022-08-01T06:52:31;29.10;;;24.35;;
49217;SDS011;35045;51.194;7.268;2022-08-01T06:57:21;26.60;;;22.30;;
49217;SDS011;35045;51.194;7.268;2022-08-01T06:59:46;25.13;;;21.90;;
49217;SDS011;35045;51.194;7.268;2022-08-01T07:02:12;27.60;;;22.10;;
49217;SDS011;35045;51.194;7.268;2022-08-01T07:04:37;26.35;;;22.65;;
49217;SDS011;35045;51.194;7.268;2022-08-01T07:07:02;25.75;;;20.90;;
49217;SDS011;35045;51.194;7.268;2022-08-01T07:11:52;25.63;;;21.02;;
49217;SDS011;35045;51.194;7.268;2022-08-01T07:14:18;26.23;;;21.63;;
49217;SDS011;35045;51.194;7.268;2022-08-01T07:16:44;25.58;;;21.17;;
49217;SDS011;35045;51.194;7.268;2022-08-01T07:21:34;24.38;;;21.00;;
49217;SDS011;35045;51.194;7.268;2022-08-01T07:23:59;27.35;;;22.10;;
49217;SDS011;35045;51.194;7.268;2022-08-01T07:26:24;25.45;;;21.10;;
49217;SDS011;35045;51.194;7.268;2022-08-01T07:28:51;27.83;;;21.50;;
49217;SDS011;35045;51.194;7.268;2022-08-01T07:31:16;26.30;;;19.58;;
49217;SDS011;35045;51.194;7.268;2022-08-01T07:33:41;21.85;;;19.00;;
49217;SDS011;35045;51.194;7.268;2022-08-01T07:36:06;20.92;;;18.55;;
49217;SDS011;35045;51.194;7.268;2022-08-01T07:38:31;17.63;;;14.80;;
49217;SDS011;35045;51.194;7.268;2022-08-01T07:40:56;16.75;;;13.50;;
49217;SDS011;35045;51.194;7.268;2022-08-01T07:43:21;17.60;;;12.82;;
49217;SDS011;35045;51.194;7.268;2022-08-01T07:45:46;14.63;;;11.73;;
49217;SDS011;35045;51.194;7.268;2022-08-01T07:48:11;13.80;;;10.60;;
49217;SDS011;35045;51.194;7.268;2022-08-01T07:50:36;14.63;;;10.50;;
49217;SDS011;35045;51.194;7.268;2022-08-01T07:53:01;11.85;;;9.80;;
49217;SDS011;35045;51.194;7.268;2022-08-01T07:55:27;12.63;;;10.40;;
49217;SDS011;35045;51.194;7.268;2022-08-01T07:57:52;13.30;;;10.38;;
49217;SDS011;35045;51.194;7.268;2022-08-01T08:00:17;11.80;;;9.52;;
49217;SDS011;35045;51.194;7.268;2022-08-01T08:02:42;12.40;;;9.90;;
49217;SDS011;35045;51.194;7.268;2022-08-01T08:05:08;13.13;;;10.35;;
49217;SDS011;35045;51.194;7.268;2022-08-01T08:07:33;14.00;;;10.90;;
49217;SDS011;35045;51.194;7.268;2022-08-01T08:09:58;13.93;;;10.35;;
49217;SDS011;35045;51.194;7.268;2022-08-01T08:12:23;17.83;;;11.18;;
49217;SDS011;35045;51.194;7.268;2022-08-01T08:14:49;15.07;;;10.90;;
49217;SDS011;35045;51.194;7.268;2022-08-01T08:17:14;12.00;;;9.55;;
49217;SDS011;35045;51.194;7.268;2022-08-01T08:19:39;11.75;;;9.05;;
49217;SDS011;35045;51.194;7.268;2022-08-01T08:22:04;12.13;;;9.18;;
49217;SDS011;35045;51.194;7.268;2022-08-01T08:24:31;11.68;;;9.48;;
49217;SDS011;35045;51.194;7.268;2022-08-01T08:26:56;12.65;;;9.68;;
49217;SDS011;35045;51.194;7.268;2022-08-01T08:29:22;13.05;;;9.57;;
49217;SDS011;35045;51.194;7.268;2022-08-01T08:31:49;13.88;;;9.75;;
49217;SDS011;35045;51.194;7.268;2022-08-01T08:34:15;12.38;;;10.63;;
49217;SDS011;35045;51.194;7.268;2022-08-01T08:36:40;13.40;;;10.32;;
49217;SDS011;35045;51.194;7.268;2022-08-01T08:39:05;13.70;;;11.07;;
49217;SDS011;35045;51.194;7.268;2022-08-01T08:43:56;12.02;;;9.43;;
49217;SDS011;35045;51.194;7.268;2022-08-01T08:46:23;13.50;;;9.95;;
49217;SDS011;35045;51.194;7.268;2022-08-01T08:48:51;15.18;;;11.13;;
49217;SDS011;35045;51.194;7.268;2022-08-01T08:51:17;11.02;;;8.70;;
49217;SDS011;35045;51.194;7.268;2022-08-01T08:53:43;11.48;;;8.13;;
49217;SDS011;35045;51.194;7.268;2022-08-01T08:56:11;10.55;;;7.88;;
49217;SDS011;35045;51.194;7.268;2022-08-01T08:58:37;12.23;;;8.98;;
49217;SDS011;35045;51.194;7.268;2022-08-01T09:01:06;13.98;;;10.10;;
49217;SDS011;35045;51.194;7.268;2022-08-01T09:03:33;13.10;;;10.30;;
49217;SDS011;35045;51.194;7.268;2022-08-01T09:08:23;12.75;;;10.40;;
49217;SDS011;35045;51.194;7.268;2022-08-01T09:10:48;11.82;;;8.75;;
49217;SDS011;35045;51.194;7.268;2022-08-01T09:13:14;11.00;;;8.52;;
49217;SDS011;35045;51.194;7.268;2022-08-01T09:18:25;8.57;;;6.38;;
49217;SDS011;35045;51.194;7.268;2022-08-01T09:23:40;9.98;;;5.70;;
49217;SDS011;35045;51.194;7.268;2022-08-01T09:26:11;7.40;;;5.00;;
49217;SDS011;35045;51.194;7.268;2022-08-01T09:28:37;8.82;;;5.55;;
49217;SDS011;35045;51.194;7.268;2022-08-01T09:31:07;8.77;;;5.28;;
49217;SDS011;35045;51.194;7.268;2022-08-01T09:33:49;7.95;;;5.07;;
49217;SDS011;35045;51.194;7.268;2022-08-01T09:36:14;6.65;;;4.10;;
49217;SDS011;35045;51.194;7.268;2022-08-01T09:41:04;7.32;;;3.65;;
49217;SDS011;35045;51.194;7.268;2022-08-01T09:43:31;6.95;;;3.58;;
49217;SDS011;35045;51.194;7.268;2022-08-01T09:45:57;7.57;;;3.47;;
49217;SDS011;35045;51.194;7.268;2022-08-01T09:48:23;5.35;;;2.83;;
49217;SDS011;35045;51.194;7.268;2022-08-01T09:50:49;6.70;;;3.72;;
49217;SDS011;35045;51.194;7.268;2022-08-01T09:53:15;6.35;;;3.17;;
49217;SDS011;35045;51.194;7.268;2022-08-01T09:55:41;6.53;;;3.38;;
49217;SDS011;35045;51.194;7.268;2022-08-01T09:58:07;6.55;;;3.53;;
49217;SDS011;35045;51.194;7.268;2022-08-01T10:00:33;6.50;;;3.25;;
49217;SDS011;35045;51.194;7.268;2022-08-01T10:02:59;5.07;;;2.28;;
49217;SDS011;35045;51.194;7.268;2022-08-01T10:05:34;5.25;;;2.30;;
49217;SDS011;35045;51.194;7.268;2022-08-01T10:08:01;6.05;;;2.30;;
49217;SDS011;35045;51.194;7.268;2022-08-01T10:10:28;5.07;;;2.22;;
49217;SDS011;35045;51.194;7.268;2022-08-01T10:15:19;6.15;;;2.70;;
49217;SDS011;35045;51.194;7.268;2022-08-01T10:17:54;6.70;;;2.53;;
49217;SDS011;35045;51.194;7.268;2022-08-01T10:20:26;6.05;;;2.50;;
49217;SDS011;35045;51.194;7.268;2022-08-01T10:22:54;5.60;;;2.28;;
49217;SDS011;35045;51.194;7.268;2022-08-01T10:25:20;5.40;;;2.55;;
49217;SDS011;35045;51.194;7.268;2022-08-01T10:27:47;4.78;;;2.20;;
49217;SDS011;35045;51.194;7.268;2022-08-01T10:30:14;6.07;;;2.67;;
49217;SDS011;35045;51.194;7.268;2022-08-01T10:32:40;6.00;;;2.40;;
49217;SDS011;35045;51.194;7.268;2022-08-01T10:35:07;6.93;;;2.60;;
49217;SDS011;35045;51.194;7.268;2022-08-01T10:37:33;5.80;;;3.15;;
49217;SDS011;35045;51.194;7.268;2022-08-01T10:39:59;7.00;;;3.50;;
49217;SDS011;35045;51.194;7.268;2022-08-01T10:42:25;7.45;;;3.50;;
49217;SDS011;35045;51.194;7.268;2022-08-01T10:44:51;6.28;;;3.00;;
49217;SDS011;35045;51.194;7.268;2022-08-01T10:47:17;5.93;;;3.00;;
49217;SDS011;35045;51.194;7.268;2022-08-01T10:49:58;6.20;;;3.30;;
49217;SDS011;35045;51.194;7.268;2022-08-01T10:52:35;6.78;;;2.83;;
49217;SDS011;35045;51.194;7.268;2022-08-01T10:55:01;6.53;;;2.85;;
49217;SDS011;35045;51.194;7.268;2022-08-01T10:57:44;5.78;;;2.30;;
49217;SDS011;35045;51.194;7.268;2022-08-01T11:00:17;4.63;;;2.28;;
49217;SDS011;35045;51.194;7.268;2022-08-01T11:02:58;5.72;;;2.67;;
49217;SDS011;35045;51.194;7.268;2022-08-01T11:05:28;5.88;;;2.63;;
49217;SDS011;35045;51.194;7.268;2022-08-01T11:07:56;5.85;;;2.67;;
49217;SDS011;35045;51.194;7.268;2022-08-01T11:10:39;5.20;;;2.55;;
49217;SDS011;35045;51.194;7.268;2022-08-01T11:13:07;5.07;;;2.20;;
49217;SDS011;35045;51.194;7.268;2022-08-01T11:15:33;5.68;;;2.70;;
49217;SDS011;35045;51.194;7.268;2022-08-01T11:18:03;5.20;;;2.33;;
49217;SDS011;35045;51.194;7.268;2022-08-01T11:21:02;5.82;;;2.55;;
49217;SDS011;35045;51.194;7.268;2022-08-01T11:23:28;5.03;;;2.28;;
49217;SDS011;35045;51.194;7.268;2022-08-01T11:28:19;4.65;;;2.10;;
49217;SDS011;35045;51.194;7.268;2022-08-01T11:30:50;6.90;;;2.30;;
49217;SDS011;35045;51.194;7.268;2022-08-01T11:38:34;5.88;;;2.20;;
49217;SDS011;35045;51.194;7.268;2022-08-01T11:41:12;6.15;;;2.22;;
49217;SDS011;35045;51.194;7.268;2022-08-01T11:49:30;5.32;;;2.08;;
49217;SDS011;35045;51.194;7.268;2022-08-01T11:52:06;4.32;;;2.00;;
49217;SDS011;35045;51.194;7.268;2022-08-01T11:59:47;5.25;;;2.22;;
49217;SDS011;35045;51.194;7.268;2022-08-01T12:02:34;4.90;;;2.30;;
49217;SDS011;35045;51.194;7.268;2022-08-01T12:05:02;5.05;;;2.10;;
49217;SDS011;35045;51.194;7.268;2022-08-01T12:07:30;4.13;;;1.90;;
49217;SDS011;35045;51.194;7.268;2022-08-01T12:10:04;3.83;;;1.70;;
49217;SDS011;35045;51.194;7.268;2022-08-01T12:12:34;4.38;;;1.80;;
49217;SDS011;35045;51.194;7.268;2022-08-01T12:15:04;5.30;;;2.65;;
49217;SDS011;35045;51.194;7.268;2022-08-01T12:17:34;3.90;;;1.83;;
49217;SDS011;35045;51.194;7.268;2022-08-01T12:20:04;5.63;;;2.60;;
49217;SDS011;35045;51.194;7.268;2022-08-01T12:22:45;6.45;;;2.42;;
49217;SDS011;35045;51.194;7.268;2022-08-01T12:25:11;5.75;;;2.90;;
49217;SDS011;35045;51.194;7.268;2022-08-01T12:27:41;5.65;;;2.42;;
49217;SDS011;35045;51.194;7.268;2022-08-01T12:30:10;5.45;;;2.03;;
49217;SDS011;35045;51.194;7.268;2022-08-01T12:32:38;3.90;;;1.95;;
49217;SDS011;35045;51.194;7.268;2022-08-01T12:35:12;4.53;;;2.10;;
49217;SDS011;35045;51.194;7.268;2022-08-01T12:37:46;4.20;;;2.00;;
49217;SDS011;35045;51.194;7.268;2022-08-01T12:40:13;3.78;;;1.75;;
49217;SDS011;35045;51.194;7.268;2022-08-01T12:42:47;4.68;;;1.60;;
49217;SDS011;35045;51.194;7.268;2022-08-01T12:45:20;4.93;;;1.40;;
49217;SDS011;35045;51.194;7.268;2022-08-01T12:47:48;3.72;;;1.35;;
49217;SDS011;35045;51.194;7.268;2022-08-01T12:50:20;3.05;;;1.35;;
49217;SDS011;35045;51.194;7.268;2022-08-01T12:52:48;4.20;;;1.27;;
49217;SDS011;35045;51.194;7.268;2022-08-01T12:55:15;3.60;;;1.42;;
49217;SDS011;35045;51.194;7.268;2022-08-01T12:57:45;3.15;;;1.30;;
49217;SDS011;35045;51.194;7.268;2022-08-01T13:00:18;3.35;;;1.25;;
49217;SDS011;35045;51.194;7.268;2022-08-01T13:02:49;4.38;;;1.40;;
49217;SDS011;35045;51.194;7.268;2022-08-01T13:05:54;4.50;;;1.63;;
49217;SDS011;35045;51.194;7.268;2022-08-01T13:08:21;5.18;;;1.95;;
49217;SDS011;35045;51.194;7.268;2022-08-01T13:11:06;4.55;;;1.80;;
49217;SDS011;35045;51.194;7.268;2022-08-01T13:13:43;4.53;;;1.60;;
49217;SDS011;35045;51.194;7.268;2022-08-01T13:16:13;3.80;;;1.60;;
49217;SDS011;35045;51.194;7.268;2022-08-01T13:18:38;5.40;;;1.90;;
49217;SDS011;35045;51.194;7.268;2022-08-01T13:23:42;3.70;;;1.70;;
49217;SDS011;35045;51.194;7.268;2022-08-01T13:26:42;4.43;;;2.15;;
49217;SDS011;35045;51.194;7.268;2022-08-01T13:29:15;4.82;;;2.03;;
49217;SDS011;35045;51.194;7.268;2022-08-01T13:31:41;5.00;;;2.28;;
49217;SDS011;35045;51.194;7.268;2022-08-01T13:34:07;4.50;;;2.00;;
49217;SDS011;35045;51.194;7.268;2022-08-01T13:36:33;5.03;;;2.08;;
49217;SDS011;35045;51.194;7.268;2022-08-01T13:38:59;4.22;;;1.80;;
49217;SDS011;35045;51.194;7.268;2022-08-01T13:41:43;3.85;;;1.65;;
49217;SDS011;35045;51.194;7.268;2022-08-01T13:44:08;4.55;;;2.08;;
49217;SDS011;35045;51.194;7.268;2022-08-01T13:46:35;3.67;;;1.67;;
49217;SDS011;35045;51.194;7.268;2022-08-01T13:49:01;6.82;;;2.00;;
49217;SDS011;35045;51.194;7.268;2022-08-01T13:51:27;4.85;;;2.00;;
49217;SDS011;35045;51.194;7.268;2022-08-01T13:53:52;3.70;;;1.60;;
49217;SDS011;35045;51.194;7.268;2022-08-01T13:56:17;5.50;;;1.92;;
49217;SDS011;35045;51.194;7.268;2022-08-01T13:58:43;4.75;;;1.95;;
49217;SDS011;35045;51.194;7.268;2022-08-01T14:01:08;5.03;;;1.90;;
49217;SDS011;35045;51.194;7.268;2022-08-01T14:03:33;4.15;;;1.70;;
49217;SDS011;35045;51.194;7.268;2022-08-01T14:05:58;3.67;;;1.42;;
49217;SDS011;35045;51.194;7.268;2022-08-01T14:08:23;4.80;;;1.98;;
49217;SDS011;35045;51.194;7.268;2022-08-01T14:10:48;4.00;;;1.70;;
49217;SDS011;35045;51.194;7.268;2022-08-01T14:13:13;4.20;;;1.80;;
49217;SDS011;35045;51.194;7.268;2022-08-01T14:15:38;5.90;;;2.15;;
49217;SDS011;35045;51.194;7.268;2022-08-01T14:18:03;4.32;;;1.90;;
49217;SDS011;35045;51.194;7.268;2022-08-01T14:20:29;4.22;;;1.80;;
49217;SDS011;35045;51.194;7.268;2022-08-01T14:22:54;4.00;;;1.70;;
49217;SDS011;35045;51.194;7.268;2022-08-01T14:25:19;5.10;;;1.80;;
49217;SDS011;35045;51.194;7.268;2022-08-01T14:27:44;4.25;;;1.52;;
49217;SDS011;35045;51.194;7.268;2022-08-01T14:30:09;3.70;;;1.77;;
49217;SDS011;35045;51.194;7.268;2022-08-01T14:32:35;3.85;;;1.80;;
49217;SDS011;35045;51.194;7.268;2022-08-01T14:35:01;4.88;;;1.60;;
49217;SDS011;35045;51.194;7.268;2022-08-01T14:37:27;4.05;;;1.58;;
49217;SDS011;35045;51.194;7.268;2022-08-01T14:39:53;4.80;;;1.65;;
49217;SDS011;35045;51.194;7.268;2022-08-01T14:42:18;3.85;;;1.65;;
49217;SDS011;35045;51.194;7.268;2022-08-01T14:44:43;3.67;;;1.60;;
49217;SDS011;35045;51.194;7.268;2022-08-01T14:49:34;4.22;;;1.70;;
49217;SDS011;35045;51.194;7.268;2022-08-01T14:54:24;4.68;;;1.50;;
49217;SDS011;35045;51.194;7.268;2022-08-01T14:59:16;3.08;;;1.55;;
49217;SDS011;35045;51.194;7.268;2022-08-01T15:04:05;4.25;;;1.48;;
49217;SDS011;35045;51.194;7.268;2022-08-01T15:08:55;3.85;;;1.80;;
49217;SDS011;35045;51.194;7.268;2022-08-01T15:13:45;3.72;;;1.80;;
49217;SDS011;35045;51.194;7.268;2022-08-01T15:16:30;3.42;;;1.40;;
49217;SDS011;35045;51.194;7.268;2022-08-01T15:21:20;2.25;;;1.08;;
49217;SDS011;35045;51.194;7.268;2022-08-01T15:23:45;2.45;;;1.13;;
49217;SDS011;35045;51.194;7.268;2022-08-01T15:28:37;3.63;;;1.48;;
49217;SDS011;35045;51.194;7.268;2022-08-01T15:33:27;2.80;;;1.38;;
49217;SDS011;35045;51.194;7.268;2022-08-01T15:38:17;5.20;;;1.70;;
49217;SDS011;35045;51.194;7.268;2022-08-01T15:40:43;3.55;;;1.50;;
49217;SDS011;35045;51.194;7.268;2022-08-01T15:45:33;4.50;;;1.63;;
49217;SDS011;35045;51.194;7.268;2022-08-01T15:47:58;5.47;;;1.65;;
49217;SDS011;35045;51.194;7.268;2022-08-01T15:50:23;4.28;;;1.80;;
49217;SDS011;35045;51.194;7.268;2022-08-01T15:55:13;3.65;;;1.52;;
49217;SDS011;35045;51.194;7.268;2022-08-01T15:57:38;3.92;;;1.60;;
49217;SDS011;35045;51.194;7.268;2022-08-01T16:00:03;4.10;;;1.80;;
49217;SDS011;35045;51.194;7.268;2022-08-01T16:02:29;3.55;;;1.60;;
49217;SDS011;35045;51.194;7.268;2022-08-01T16:04:54;3.78;;;1.60;;
49217;SDS011;35045;51.194;7.268;2022-08-01T16:07:19;3.92;;;1.92;;
49217;SDS011;35045;51.194;7.268;2022-08-01T16:09:44;4.50;;;1.80;;
49217;SDS011;35045;51.194;7.268;2022-08-01T16:12:09;3.00;;;1.50;;
49217;SDS011;35045;51.194;7.268;2022-08-01T16:14:34;4.70;;;2.10;;